This is the latest recevied weather packets stored in our database for station/object KJ4OVR-WX. If no packets are shown the sender has not sent any weather packets the latest 10 day(s).
| Time | Temp. | Humidity | Pressure | Rain* | Wind** | Luminosity | Snow |
|---|---|---|---|---|---|---|---|
| 1777810853 | 5.56° C | 91% | 1022.7 hPa | 0 mm | - | - | - |
| 1777810586 | 5.56° C | 91% | 1022.7 hPa | 0 mm | - | - | - |
| 1777809954 | 4.44° C | 90% | 1022.8 hPa | 0 mm | - | - | - |
| 1777809654 | 3.89° C | 90% | 1022.7 hPa | 0 mm | - | - | - |
| 1777809354 | 3.89° C | 90% | 1022.7 hPa | 0 mm | - | - | - |
| 1777809054 | 3.89° C | 90% | 1022.6 hPa | 0 mm | - | - | - |
| 1777808454 | 3.89° C | 90% | 1022.6 hPa | 0 mm | - | - | - |
| 1777808154 | 3.89° C | 90% | 1022.5 hPa | 0 mm | - | - | - |
| 1777807854 | 3.33° C | 90% | 1022.5 hPa | 0 mm | - | - | - |
| 1777806955 | 3.33° C | 90% | 1022.2 hPa | 0 mm | - | - | - |
| 1777806355 | 3.33° C | 90% | 1022.2 hPa | 0 mm | - | - | - |
| 1777805455 | 3.89° C | 90% | 1022 hPa | 0 mm | - | - | - |
| 1777804555 | 3.89° C | 90% | 1021.8 hPa | 0 mm | - | - | - |
| 1777804283 | 3.89° C | 90% | 1021.8 hPa | 0 mm | - | - | - |
| 1777803955 | 3.89° C | 90% | 1021.7 hPa | 0 mm | - | - | - |
| 1777803655 | 3.89° C | 90% | 1021.7 hPa | 0 mm | - | - | - |
| 1777803359 | 4.44° C | 90% | 1021.6 hPa | 0 mm | - | - | - |
| 1777803058 | 4.44° C | 90% | 1021.6 hPa | 0 mm | - | - | - |
| 1777802755 | 4.44° C | 90% | 1021.6 hPa | 0 mm | - | - | - |
| 1777802455 | 4.44° C | 90% | 1021.6 hPa | 0 mm | - | - | - |
| 1777802156 | 3.89° C | 89% | 1021.7 hPa | 0 mm | - | - | - |
| 1777801855 | 3.89° C | 89% | 1021.7 hPa | 0 mm | - | - | - |
| 1777801255 | 4.44° C | 89% | 1021.5 hPa | 0 mm | - | - | - |
| 1777800955 | 4.44° C | 89% | 1021.5 hPa | 0 mm | - | - | - |
| 1777800656 | 4.44° C | 89% | 1021.5 hPa | 0 mm | - | - | - |
* Rain latest hour (hover to see other rain measurements)
** Current wind speed in m/s (hover to see current wind gust speed)